sensor_id;sensor_type;location;lat;lon;timestamp;P1;durP1;ratioP1;P2;durP2;ratioP2
27746;SDS011;15138;51.012;4.692;2023-04-15T00:00:55;6.68;;;3.67;;
27746;SDS011;15138;51.012;4.692;2023-04-15T00:03:23;8.57;;;3.60;;
27746;SDS011;15138;51.012;4.692;2023-04-15T00:05:52;9.90;;;3.95;;
27746;SDS011;15138;51.012;4.692;2023-04-15T00:08:21;6.88;;;3.30;;
27746;SDS011;15138;51.012;4.692;2023-04-15T00:10:51;6.70;;;3.30;;
27746;SDS011;15138;51.012;4.692;2023-04-15T00:13:20;6.72;;;3.60;;
27746;SDS011;15138;51.012;4.692;2023-04-15T00:15:50;4.53;;;3.03;;
27746;SDS011;15138;51.012;4.692;2023-04-15T00:18:18;5.60;;;3.53;;
27746;SDS011;15138;51.012;4.692;2023-04-15T00:20:48;5.78;;;3.42;;
27746;SDS011;15138;51.012;4.692;2023-04-15T00:23:17;12.93;;;4.45;;
27746;SDS011;15138;51.012;4.692;2023-04-15T00:25:46;8.73;;;3.88;;
27746;SDS011;15138;51.012;4.692;2023-04-15T00:28:16;6.15;;;3.70;;
27746;SDS011;15138;51.012;4.692;2023-04-15T00:30:44;8.40;;;3.60;;
27746;SDS011;15138;51.012;4.692;2023-04-15T00:33:13;8.63;;;4.28;;
27746;SDS011;15138;51.012;4.692;2023-04-15T00:35:43;8.15;;;4.22;;
27746;SDS011;15138;51.012;4.692;2023-04-15T00:38:11;12.30;;;4.82;;
27746;SDS011;15138;51.012;4.692;2023-04-15T00:40:40;8.05;;;4.28;;
27746;SDS011;15138;51.012;4.692;2023-04-15T00:43:08;6.63;;;3.63;;
27746;SDS011;15138;51.012;4.692;2023-04-15T00:45:38;9.60;;;4.10;;
27746;SDS011;15138;51.012;4.692;2023-04-15T00:48:07;8.40;;;4.53;;
27746;SDS011;15138;51.012;4.692;2023-04-15T00:50:35;8.63;;;4.20;;
27746;SDS011;15138;51.012;4.692;2023-04-15T00:53:04;8.52;;;4.03;;
27746;SDS011;15138;51.012;4.692;2023-04-15T00:55:32;7.28;;;3.45;;
27746;SDS011;15138;51.012;4.692;2023-04-15T00:58:01;8.25;;;3.67;;
27746;SDS011;15138;51.012;4.692;2023-04-15T01:00:30;11.45;;;4.47;;
27746;SDS011;15138;51.012;4.692;2023-04-15T01:03:00;7.47;;;4.30;;
27746;SDS011;15138;51.012;4.692;2023-04-15T01:05:28;6.78;;;3.90;;
27746;SDS011;15138;51.012;4.692;2023-04-15T01:07:57;6.13;;;3.85;;
27746;SDS011;15138;51.012;4.692;2023-04-15T01:10:25;6.28;;;3.90;;
27746;SDS011;15138;51.012;4.692;2023-04-15T01:12:54;8.40;;;4.30;;
27746;SDS011;15138;51.012;4.692;2023-04-15T01:15:23;9.30;;;4.35;;
27746;SDS011;15138;51.012;4.692;2023-04-15T01:17:52;9.75;;;4.18;;
27746;SDS011;15138;51.012;4.692;2023-04-15T01:20:22;8.38;;;4.15;;
27746;SDS011;15138;51.012;4.692;2023-04-15T01:22:51;7.95;;;4.22;;
27746;SDS011;15138;51.012;4.692;2023-04-15T01:25:25;9.48;;;4.03;;
27746;SDS011;15138;51.012;4.692;2023-04-15T01:27:55;10.15;;;4.80;;
27746;SDS011;15138;51.012;4.692;2023-04-15T01:30:23;11.02;;;4.05;;
27746;SDS011;15138;51.012;4.692;2023-04-15T01:32:52;8.40;;;3.75;;
27746;SDS011;15138;51.012;4.692;2023-04-15T01:35:21;6.78;;;4.05;;
27746;SDS011;15138;51.012;4.692;2023-04-15T01:37:49;5.43;;;3.53;;
27746;SDS011;15138;51.012;4.692;2023-04-15T01:40:19;8.15;;;3.65;;
27746;SDS011;15138;51.012;4.692;2023-04-15T01:42:49;6.20;;;3.53;;
27746;SDS011;15138;51.012;4.692;2023-04-15T01:45:18;6.78;;;4.20;;
27746;SDS011;15138;51.012;4.692;2023-04-15T01:47:46;10.98;;;4.47;;
27746;SDS011;15138;51.012;4.692;2023-04-15T01:50:15;6.32;;;3.80;;
27746;SDS011;15138;51.012;4.692;2023-04-15T01:52:44;7.60;;;3.67;;
27746;SDS011;15138;51.012;4.692;2023-04-15T01:55:12;8.10;;;4.60;;
27746;SDS011;15138;51.012;4.692;2023-04-15T01:57:41;10.15;;;3.60;;
27746;SDS011;15138;51.012;4.692;2023-04-15T02:00:11;8.43;;;3.95;;
27746;SDS011;15138;51.012;4.692;2023-04-15T02:02:40;10.07;;;4.13;;
27746;SDS011;15138;51.012;4.692;2023-04-15T02:05:09;10.63;;;4.63;;
27746;SDS011;15138;51.012;4.692;2023-04-15T02:07:37;10.57;;;5.15;;
27746;SDS011;15138;51.012;4.692;2023-04-15T02:10:05;9.80;;;4.50;;
27746;SDS011;15138;51.012;4.692;2023-04-15T02:12:34;7.85;;;4.30;;
27746;SDS011;15138;51.012;4.692;2023-04-15T02:15:03;8.18;;;4.43;;
27746;SDS011;15138;51.012;4.692;2023-04-15T02:17:34;11.15;;;4.85;;
27746;SDS011;15138;51.012;4.692;2023-04-15T02:20:03;10.23;;;4.00;;
27746;SDS011;15138;51.012;4.692;2023-04-15T02:22:32;8.27;;;4.38;;
27746;SDS011;15138;51.012;4.692;2023-04-15T02:25:00;12.38;;;4.38;;
27746;SDS011;15138;51.012;4.692;2023-04-15T02:27:28;9.55;;;4.50;;
27746;SDS011;15138;51.012;4.692;2023-04-15T02:29:58;10.10;;;5.00;;
27746;SDS011;15138;51.012;4.692;2023-04-15T02:32:26;9.18;;;4.30;;
27746;SDS011;15138;51.012;4.692;2023-04-15T02:34:58;6.57;;;4.03;;
27746;SDS011;15138;51.012;4.692;2023-04-15T02:37:29;7.30;;;4.22;;
27746;SDS011;15138;51.012;4.692;2023-04-15T02:39:57;6.97;;;4.03;;
27746;SDS011;15138;51.012;4.692;2023-04-15T02:42:26;11.20;;;4.93;;
27746;SDS011;15138;51.012;4.692;2023-04-15T02:44:55;10.65;;;4.20;;
27746;SDS011;15138;51.012;4.692;2023-04-15T02:47:24;10.55;;;4.72;;
27746;SDS011;15138;51.012;4.692;2023-04-15T02:49:53;13.57;;;5.43;;
27746;SDS011;15138;51.012;4.692;2023-04-15T02:52:22;8.65;;;4.70;;
27746;SDS011;15138;51.012;4.692;2023-04-15T02:54:51;8.23;;;3.90;;
27746;SDS011;15138;51.012;4.692;2023-04-15T02:57:22;9.57;;;4.57;;
27746;SDS011;15138;51.012;4.692;2023-04-15T02:59:51;7.28;;;4.30;;
27746;SDS011;15138;51.012;4.692;2023-04-15T03:02:20;8.65;;;4.43;;
27746;SDS011;15138;51.012;4.692;2023-04-15T03:04:48;10.82;;;5.20;;
27746;SDS011;15138;51.012;4.692;2023-04-15T03:07:17;7.35;;;3.83;;
27746;SDS011;15138;51.012;4.692;2023-04-15T03:09:47;7.45;;;4.00;;
27746;SDS011;15138;51.012;4.692;2023-04-15T03:12:15;13.70;;;4.45;;
27746;SDS011;15138;51.012;4.692;2023-04-15T03:14:44;13.13;;;4.40;;
27746;SDS011;15138;51.012;4.692;2023-04-15T03:17:12;11.55;;;5.00;;
27746;SDS011;15138;51.012;4.692;2023-04-15T03:19:41;13.23;;;5.15;;
27746;SDS011;15138;51.012;4.692;2023-04-15T03:22:09;11.35;;;5.45;;
27746;SDS011;15138;51.012;4.692;2023-04-15T03:24:37;9.98;;;4.07;;
27746;SDS011;15138;51.012;4.692;2023-04-15T03:27:07;9.68;;;4.47;;
27746;SDS011;15138;51.012;4.692;2023-04-15T03:29:36;8.98;;;4.80;;
27746;SDS011;15138;51.012;4.692;2023-04-15T03:32:04;8.50;;;4.25;;
27746;SDS011;15138;51.012;4.692;2023-04-15T03:34:32;7.53;;;3.88;;
27746;SDS011;15138;51.012;4.692;2023-04-15T03:37:01;9.30;;;3.97;;
27746;SDS011;15138;51.012;4.692;2023-04-15T03:39:29;8.00;;;4.35;;
27746;SDS011;15138;51.012;4.692;2023-04-15T03:41:58;6.57;;;3.72;;
27746;SDS011;15138;51.012;4.692;2023-04-15T03:44:28;10.57;;;4.90;;
27746;SDS011;15138;51.012;4.692;2023-04-15T03:46:58;7.55;;;4.10;;
27746;SDS011;15138;51.012;4.692;2023-04-15T03:49:26;11.20;;;4.60;;
27746;SDS011;15138;51.012;4.692;2023-04-15T03:51:55;6.88;;;3.80;;
27746;SDS011;15138;51.012;4.692;2023-04-15T03:54:23;7.65;;;3.95;;
27746;SDS011;15138;51.012;4.692;2023-04-15T03:56:52;9.40;;;4.45;;
27746;SDS011;15138;51.012;4.692;2023-04-15T03:59:20;8.40;;;3.88;;
27746;SDS011;15138;51.012;4.692;2023-04-15T04:01:50;8.43;;;3.85;;
27746;SDS011;15138;51.012;4.692;2023-04-15T04:04:18;7.28;;;4.00;;
27746;SDS011;15138;51.012;4.692;2023-04-15T04:06:47;7.10;;;3.75;;
27746;SDS011;15138;51.012;4.692;2023-04-15T04:09:16;6.28;;;3.50;;
27746;SDS011;15138;51.012;4.692;2023-04-15T04:11:44;8.00;;;3.88;;
27746;SDS011;15138;51.012;4.692;2023-04-15T04:14:13;7.05;;;4.00;;
27746;SDS011;15138;51.012;4.692;2023-04-15T04:16:41;8.10;;;4.15;;
27746;SDS011;15138;51.012;4.692;2023-04-15T04:19:11;8.30;;;4.00;;
27746;SDS011;15138;51.012;4.692;2023-04-15T04:21:40;7.57;;;3.88;;
27746;SDS011;15138;51.012;4.692;2023-04-15T04:24:08;11.95;;;5.00;;
27746;SDS011;15138;51.012;4.692;2023-04-15T04:26:37;9.75;;;4.05;;
27746;SDS011;15138;51.012;4.692;2023-04-15T04:29:05;4.50;;;3.20;;
27746;SDS011;15138;51.012;4.692;2023-04-15T04:31:34;9.70;;;4.15;;
27746;SDS011;15138;51.012;4.692;2023-04-15T04:34:02;8.98;;;3.60;;
27746;SDS011;15138;51.012;4.692;2023-04-15T04:36:32;6.63;;;3.55;;
27746;SDS011;15138;51.012;4.692;2023-04-15T04:39:00;8.98;;;3.78;;
27746;SDS011;15138;51.012;4.692;2023-04-15T04:41:29;10.77;;;4.55;;
27746;SDS011;15138;51.012;4.692;2023-04-15T04:43:57;10.63;;;4.53;;
27746;SDS011;15138;51.012;4.692;2023-04-15T04:46:26;9.43;;;4.13;;
27746;SDS011;15138;51.012;4.692;2023-04-15T04:48:54;9.13;;;4.03;;
27746;SDS011;15138;51.012;4.692;2023-04-15T04:51:23;11.25;;;4.93;;
27746;SDS011;15138;51.012;4.692;2023-04-15T04:53:52;6.72;;;3.75;;
27746;SDS011;15138;51.012;4.692;2023-04-15T04:56:22;13.05;;;4.65;;
27746;SDS011;15138;51.012;4.692;2023-04-15T04:58:51;10.90;;;5.03;;
27746;SDS011;15138;51.012;4.692;2023-04-15T05:01:19;6.57;;;4.18;;
27746;SDS011;15138;51.012;4.692;2023-04-15T05:03:47;11.90;;;5.22;;
27746;SDS011;15138;51.012;4.692;2023-04-15T05:06:16;11.13;;;4.00;;
27746;SDS011;15138;51.012;4.692;2023-04-15T05:08:45;8.07;;;4.18;;
27746;SDS011;15138;51.012;4.692;2023-04-15T05:11:14;10.93;;;4.53;;
27746;SDS011;15138;51.012;4.692;2023-04-15T05:13:43;7.90;;;3.60;;
27746;SDS011;15138;51.012;4.692;2023-04-15T05:16:11;11.20;;;5.22;;
27746;SDS011;15138;51.012;4.692;2023-04-15T05:18:40;10.95;;;4.90;;
27746;SDS011;15138;51.012;4.692;2023-04-15T05:21:08;11.90;;;4.63;;
27746;SDS011;15138;51.012;4.692;2023-04-15T05:23:37;10.27;;;5.07;;
27746;SDS011;15138;51.012;4.692;2023-04-15T05:26:05;12.63;;;5.15;;
27746;SDS011;15138;51.012;4.692;2023-04-15T05:28:35;10.10;;;5.07;;
27746;SDS011;15138;51.012;4.692;2023-04-15T05:31:04;9.55;;;4.38;;
27746;SDS011;15138;51.012;4.692;2023-04-15T05:33:32;14.15;;;5.38;;
27746;SDS011;15138;51.012;4.692;2023-04-15T05:36:01;6.82;;;3.40;;
27746;SDS011;15138;51.012;4.692;2023-04-15T05:38:29;7.72;;;4.05;;
27746;SDS011;15138;51.012;4.692;2023-04-15T05:40:58;7.45;;;3.78;;
27746;SDS011;15138;51.012;4.692;2023-04-15T05:43:26;7.88;;;4.25;;
27746;SDS011;15138;51.012;4.692;2023-04-15T05:45:57;14.30;;;5.35;;
27746;SDS011;15138;51.012;4.692;2023-04-15T05:48:25;12.65;;;5.65;;
27746;SDS011;15138;51.012;4.692;2023-04-15T05:50:54;11.65;;;4.90;;
27746;SDS011;15138;51.012;4.692;2023-04-15T05:53:22;9.23;;;4.97;;
27746;SDS011;15138;51.012;4.692;2023-04-15T05:55:50;13.35;;;5.47;;
27746;SDS011;15138;51.012;4.692;2023-04-15T05:58:18;11.35;;;5.35;;
27746;SDS011;15138;51.012;4.692;2023-04-15T06:00:47;11.73;;;5.80;;
27746;SDS011;15138;51.012;4.692;2023-04-15T06:03:16;11.05;;;4.65;;
27746;SDS011;15138;51.012;4.692;2023-04-15T06:05:45;9.77;;;4.82;;
27746;SDS011;15138;51.012;4.692;2023-04-15T06:08:13;8.95;;;4.68;;
27746;SDS011;15138;51.012;4.692;2023-04-15T06:10:41;8.68;;;5.32;;
27746;SDS011;15138;51.012;4.692;2023-04-15T06:13:09;7.70;;;4.20;;
27746;SDS011;15138;51.012;4.692;2023-04-15T06:15:38;9.18;;;5.53;;
27746;SDS011;15138;51.012;4.692;2023-04-15T06:18:06;19.83;;;7.47;;
27746;SDS011;15138;51.012;4.692;2023-04-15T06:20:36;11.85;;;5.63;;
27746;SDS011;15138;51.012;4.692;2023-04-15T06:23:04;11.60;;;4.43;;
27746;SDS011;15138;51.012;4.692;2023-04-15T06:25:32;20.67;;;7.40;;
27746;SDS011;15138;51.012;4.692;2023-04-15T06:28:01;15.40;;;6.72;;
27746;SDS011;15138;51.012;4.692;2023-04-15T06:30:29;15.07;;;7.00;;
27746;SDS011;15138;51.012;4.692;2023-04-15T06:32:57;12.18;;;5.38;;
27746;SDS011;15138;51.012;4.692;2023-04-15T06:35:25;15.00;;;6.60;;
27746;SDS011;15138;51.012;4.692;2023-04-15T06:37:55;13.93;;;6.20;;
27746;SDS011;15138;51.012;4.692;2023-04-15T06:40:23;10.70;;;6.43;;
27746;SDS011;15138;51.012;4.692;2023-04-15T06:42:52;19.95;;;8.82;;
27746;SDS011;15138;51.012;4.692;2023-04-15T06:45:20;13.43;;;7.22;;
27746;SDS011;15138;51.012;4.692;2023-04-15T06:47:49;12.75;;;7.30;;
27746;SDS011;15138;51.012;4.692;2023-04-15T06:50:18;15.75;;;7.18;;
27746;SDS011;15138;51.012;4.692;2023-04-15T06:52:46;17.23;;;6.50;;
27746;SDS011;15138;51.012;4.692;2023-04-15T06:55:16;16.58;;;7.07;;
27746;SDS011;15138;51.012;4.692;2023-04-15T06:57:44;14.48;;;8.43;;
27746;SDS011;15138;51.012;4.692;2023-04-15T07:00:16;14.00;;;7.75;;
27746;SDS011;15138;51.012;4.692;2023-04-15T07:02:45;25.08;;;8.55;;
27746;SDS011;15138;51.012;4.692;2023-04-15T07:05:15;18.20;;;8.50;;
27746;SDS011;15138;51.012;4.692;2023-04-15T07:07:44;23.40;;;10.57;;
27746;SDS011;15138;51.012;4.692;2023-04-15T07:10:13;21.58;;;10.15;;
27746;SDS011;15138;51.012;4.692;2023-04-15T07:12:42;18.60;;;10.45;;
27746;SDS011;15138;51.012;4.692;2023-04-15T07:15:11;13.55;;;6.03;;
27746;SDS011;15138;51.012;4.692;2023-04-15T07:17:40;7.68;;;4.32;;
27746;SDS011;15138;51.012;4.692;2023-04-15T07:20:09;25.15;;;11.27;;
27746;SDS011;15138;51.012;4.692;2023-04-15T07:22:38;15.82;;;7.18;;
27746;SDS011;15138;51.012;4.692;2023-04-15T07:25:07;18.13;;;10.23;;
27746;SDS011;15138;51.012;4.692;2023-04-15T07:27:35;15.82;;;8.38;;
27746;SDS011;15138;51.012;4.692;2023-04-15T07:30:06;17.35;;;8.55;;
27746;SDS011;15138;51.012;4.692;2023-04-15T07:32:35;19.88;;;9.80;;
27746;SDS011;15138;51.012;4.692;2023-04-15T07:35:04;18.50;;;9.02;;
27746;SDS011;15138;51.012;4.692;2023-04-15T07:37:33;19.30;;;9.55;;
27746;SDS011;15138;51.012;4.692;2023-04-15T07:40:01;23.02;;;8.30;;
27746;SDS011;15138;51.012;4.692;2023-04-15T07:42:33;18.27;;;8.57;;
27746;SDS011;15138;51.012;4.692;2023-04-15T07:45:02;17.83;;;9.05;;
27746;SDS011;15138;51.012;4.692;2023-04-15T07:47:32;17.77;;;7.72;;
27746;SDS011;15138;51.012;4.692;2023-04-15T07:50:00;18.65;;;8.55;;
27746;SDS011;15138;51.012;4.692;2023-04-15T07:52:28;15.57;;;8.35;;
27746;SDS011;15138;51.012;4.692;2023-04-15T07:54:57;14.85;;;7.55;;
27746;SDS011;15138;51.012;4.692;2023-04-15T07:57:26;17.45;;;5.30;;
27746;SDS011;15138;51.012;4.692;2023-04-15T07:59:54;17.77;;;7.57;;
27746;SDS011;15138;51.012;4.692;2023-04-15T08:02:22;14.25;;;7.68;;
27746;SDS011;15138;51.012;4.692;2023-04-15T08:04:52;19.23;;;7.93;;
27746;SDS011;15138;51.012;4.692;2023-04-15T08:07:20;12.68;;;5.70;;
27746;SDS011;15138;51.012;4.692;2023-04-15T08:09:49;14.38;;;7.13;;
27746;SDS011;15138;51.012;4.692;2023-04-15T08:12:17;11.52;;;6.65;;
27746;SDS011;15138;51.012;4.692;2023-04-15T08:14:45;18.00;;;7.78;;
27746;SDS011;15138;51.012;4.692;2023-04-15T08:17:14;17.48;;;6.88;;
27746;SDS011;15138;51.012;4.692;2023-04-15T08:19:42;19.05;;;8.88;;
27746;SDS011;15138;51.012;4.692;2023-04-15T08:22:11;11.95;;;5.93;;
27746;SDS011;15138;51.012;4.692;2023-04-15T08:24:43;8.77;;;4.35;;
27746;SDS011;15138;51.012;4.692;2023-04-15T08:27:11;12.52;;;7.20;;
27746;SDS011;15138;51.012;4.692;2023-04-15T08:29:40;10.32;;;6.95;;
27746;SDS011;15138;51.012;4.692;2023-04-15T08:32:08;10.07;;;4.90;;
27746;SDS011;15138;51.012;4.692;2023-04-15T08:34:37;17.42;;;7.47;;
27746;SDS011;15138;51.012;4.692;2023-04-15T08:37:05;12.45;;;6.82;;
27746;SDS011;15138;51.012;4.692;2023-04-15T08:39:37;13.50;;;7.28;;
27746;SDS011;15138;51.012;4.692;2023-04-15T08:42:07;13.80;;;6.50;;
27746;SDS011;15138;51.012;4.692;2023-04-15T08:44:38;12.32;;;7.32;;
27746;SDS011;15138;51.012;4.692;2023-04-15T08:47:07;15.88;;;7.93;;
27746;SDS011;15138;51.012;4.692;2023-04-15T08:49:38;13.98;;;7.75;;
27746;SDS011;15138;51.012;4.692;2023-04-15T08:52:07;14.45;;;8.57;;
27746;SDS011;15138;51.012;4.692;2023-04-15T08:54:37;8.35;;;5.20;;
27746;SDS011;15138;51.012;4.692;2023-04-15T08:57:05;14.88;;;6.57;;
27746;SDS011;15138;51.012;4.692;2023-04-15T08:59:34;5.78;;;3.00;;
27746;SDS011;15138;51.012;4.692;2023-04-15T09:02:03;8.63;;;4.70;;
27746;SDS011;15138;51.012;4.692;2023-04-15T09:04:32;11.00;;;5.60;;
27746;SDS011;15138;51.012;4.692;2023-04-15T09:07:00;11.02;;;5.78;;
27746;SDS011;15138;51.012;4.692;2023-04-15T09:09:30;9.52;;;6.30;;
27746;SDS011;15138;51.012;4.692;2023-04-15T09:12:01;9.70;;;5.97;;
27746;SDS011;15138;51.012;4.692;2023-04-15T09:14:30;9.43;;;6.30;;
27746;SDS011;15138;51.012;4.692;2023-04-15T09:16:59;9.70;;;6.93;;
27746;SDS011;15138;51.012;4.692;2023-04-15T09:19:29;9.80;;;5.93;;
27746;SDS011;15138;51.012;4.692;2023-04-15T09:21:59;5.80;;;4.35;;
27746;SDS011;15138;51.012;4.692;2023-04-15T09:24:34;10.73;;;7.18;;
27746;SDS011;15138;51.012;4.692;2023-04-15T09:27:10;8.82;;;4.90;;
27746;SDS011;15138;51.012;4.692;2023-04-15T09:29:39;5.20;;;3.13;;
27746;SDS011;15138;51.012;4.692;2023-04-15T09:32:08;5.95;;;4.20;;
27746;SDS011;15138;51.012;4.692;2023-04-15T09:34:37;8.50;;;4.35;;
27746;SDS011;15138;51.012;4.692;2023-04-15T09:37:05;7.70;;;4.18;;
27746;SDS011;15138;51.012;4.692;2023-04-15T09:39:45;9.05;;;4.78;;
27746;SDS011;15138;51.012;4.692;2023-04-15T09:42:17;12.13;;;5.30;;
27746;SDS011;15138;51.012;4.692;2023-04-15T09:44:49;5.53;;;3.60;;
27746;SDS011;15138;51.012;4.692;2023-04-15T09:50:04;6.47;;;2.95;;
27746;SDS011;15138;51.012;4.692;2023-04-15T09:52:39;7.72;;;3.15;;
27746;SDS011;15138;51.012;4.692;2023-04-15T09:55:09;6.03;;;2.25;;
27746;SDS011;15138;51.012;4.692;2023-04-15T09:57:40;6.28;;;4.20;;
27746;SDS011;15138;51.012;4.692;2023-04-15T10:00:09;10.02;;;3.47;;
27746;SDS011;15138;51.012;4.692;2023-04-15T10:02:38;5.63;;;3.53;;
27746;SDS011;15138;51.012;4.692;2023-04-15T10:05:10;5.78;;;3.35;;
27746;SDS011;15138;51.012;4.692;2023-04-15T10:07:41;7.60;;;3.28;;
27746;SDS011;15138;51.012;4.692;2023-04-15T10:10:11;7.70;;;3.05;;
27746;SDS011;15138;51.012;4.692;2023-04-15T10:12:41;9.48;;;3.45;;
27746;SDS011;15138;51.012;4.692;2023-04-15T10:15:12;4.22;;;2.60;;
27746;SDS011;15138;51.012;4.692;2023-04-15T10:17:42;6.68;;;3.33;;
27746;SDS011;15138;51.012;4.692;2023-04-15T10:20:11;7.68;;;3.30;;
27746;SDS011;15138;51.012;4.692;2023-04-15T10:22:41;12.50;;;3.40;;
27746;SDS011;15138;51.012;4.692;2023-04-15T10:25:11;5.10;;;1.95;;
27746;SDS011;15138;51.012;4.692;2023-04-15T10:27:43;5.70;;;3.42;;
27746;SDS011;15138;51.012;4.692;2023-04-15T10:30:14;7.22;;;4.18;;
27746;SDS011;15138;51.012;4.692;2023-04-15T10:32:42;6.38;;;4.20;;
27746;SDS011;15138;51.012;4.692;2023-04-15T10:35:12;7.32;;;2.28;;
27746;SDS011;15138;51.012;4.692;2023-04-15T10:37:40;5.13;;;3.13;;
27746;SDS011;15138;51.012;4.692;2023-04-15T10:43:00;4.85;;;2.45;;
27746;SDS011;15138;51.012;4.692;2023-04-15T10:45:31;3.30;;;1.75;;
27746;SDS011;15138;51.012;4.692;2023-04-15T10:48:00;3.78;;;2.40;;
27746;SDS011;15138;51.012;4.692;2023-04-15T10:50:30;5.20;;;3.40;;
27746;SDS011;15138;51.012;4.692;2023-04-15T10:52:58;6.05;;;4.03;;
27746;SDS011;15138;51.012;4.692;2023-04-15T10:55:30;6.43;;;3.75;;
27746;SDS011;15138;51.012;4.692;2023-04-15T10:58:01;6.88;;;3.08;;
27746;SDS011;15138;51.012;4.692;2023-04-15T11:00:29;4.80;;;3.88;;
27746;SDS011;15138;51.012;4.692;2023-04-15T11:03:04;6.15;;;3.10;;
27746;SDS011;15138;51.012;4.692;2023-04-15T11:05:49;6.53;;;1.88;;
27746;SDS011;15138;51.012;4.692;2023-04-15T11:08:18;5.70;;;3.50;;
27746;SDS011;15138;51.012;4.692;2023-04-15T11:10:49;6.60;;;3.38;;
27746;SDS011;15138;51.012;4.692;2023-04-15T11:13:23;6.65;;;4.00;;
27746;SDS011;15138;51.012;4.692;2023-04-15T11:16:00;6.70;;;4.28;;
27746;SDS011;15138;51.012;4.692;2023-04-15T11:18:29;4.82;;;3.03;;
27746;SDS011;15138;51.012;4.692;2023-04-15T11:20:59;4.70;;;3.00;;
27746;SDS011;15138;51.012;4.692;2023-04-15T11:23:33;3.30;;;1.88;;
27746;SDS011;15138;51.012;4.692;2023-04-15T11:26:07;2.67;;;1.50;;
27746;SDS011;15138;51.012;4.692;2023-04-15T11:28:39;2.80;;;1.50;;
27746;SDS011;15138;51.012;4.692;2023-04-15T11:31:09;2.80;;;1.50;;
27746;SDS011;15138;51.012;4.692;2023-04-15T11:33:52;3.53;;;2.42;;
27746;SDS011;15138;51.012;4.692;2023-04-15T11:36:22;7.43;;;2.38;;
27746;SDS011;15138;51.012;4.692;2023-04-15T11:38:53;6.57;;;2.28;;
27746;SDS011;15138;51.012;4.692;2023-04-15T11:41:22;5.55;;;2.30;;
27746;SDS011;15138;51.012;4.692;2023-04-15T11:43:52;3.42;;;2.20;;
27746;SDS011;15138;51.012;4.692;2023-04-15T11:46:20;5.03;;;2.40;;
27746;SDS011;15138;51.012;4.692;2023-04-15T11:48:55;3.45;;;2.40;;
27746;SDS011;15138;51.012;4.692;2023-04-15T11:51:23;3.85;;;2.13;;
27746;SDS011;15138;51.012;4.692;2023-04-15T11:53:51;3.88;;;2.03;;
27746;SDS011;15138;51.012;4.692;2023-04-15T11:56:21;2.83;;;2.17;;
27746;SDS011;15138;51.012;4.692;2023-04-15T11:58:52;3.20;;;1.60;;
27746;SDS011;15138;51.012;4.692;2023-04-15T12:01:29;1.23;;;0.63;;
27746;SDS011;15138;51.012;4.692;2023-04-15T12:03:58;3.30;;;1.60;;
27746;SDS011;15138;51.012;4.692;2023-04-15T12:06:30;5.55;;;1.60;;
27746;SDS011;15138;51.012;4.692;2023-04-15T12:09:02;4.18;;;1.30;;
27746;SDS011;15138;51.012;4.692;2023-04-15T12:11:35;6.13;;;1.30;;
27746;SDS011;15138;51.012;4.692;2023-04-15T12:14:07;2.03;;;1.10;;
27746;SDS011;15138;51.012;4.692;2023-04-15T12:16:39;2.13;;;1.05;;
27746;SDS011;15138;51.012;4.692;2023-04-15T12:19:15;3.13;;;1.70;;
27746;SDS011;15138;51.012;4.692;2023-04-15T12:21:49;2.17;;;1.10;;
27746;SDS011;15138;51.012;4.692;2023-04-15T12:24:25;3.30;;;1.42;;
27746;SDS011;15138;51.012;4.692;2023-04-15T12:26:55;2.92;;;1.30;;
27746;SDS011;15138;51.012;4.692;2023-04-15T12:29:26;2.80;;;0.95;;
27746;SDS011;15138;51.012;4.692;2023-04-15T12:31:56;1.95;;;0.93;;
27746;SDS011;15138;51.012;4.692;2023-04-15T12:34:25;3.80;;;1.50;;
27746;SDS011;15138;51.012;4.692;2023-04-15T12:36:56;3.80;;;1.65;;
27746;SDS011;15138;51.012;4.692;2023-04-15T12:39:26;3.50;;;1.80;;
27746;SDS011;15138;51.012;4.692;2023-04-15T12:41:56;3.80;;;1.55;;
27746;SDS011;15138;51.012;4.692;2023-04-15T12:44:27;4.05;;;1.27;;
27746;SDS011;15138;51.012;4.692;2023-04-15T12:46:55;4.97;;;1.80;;
27746;SDS011;15138;51.012;4.692;2023-04-15T12:49:25;3.88;;;1.08;;
27746;SDS011;15138;51.012;4.692;2023-04-15T12:51:55;3.20;;;1.77;;
27746;SDS011;15138;51.012;4.692;2023-04-15T12:54:24;3.25;;;0.90;;
27746;SDS011;15138;51.012;4.692;2023-04-15T12:56:53;3.40;;;1.45;;
27746;SDS011;15138;51.012;4.692;2023-04-15T12:59:22;2.90;;;1.25;;
27746;SDS011;15138;51.012;4.692;2023-04-15T13:01:51;4.63;;;1.20;;
27746;SDS011;15138;51.012;4.692;2023-04-15T13:04:20;2.50;;;1.05;;
27746;SDS011;15138;51.012;4.692;2023-04-15T13:06:49;3.65;;;1.10;;
27746;SDS011;15138;51.012;4.692;2023-04-15T13:09:17;2.70;;;1.30;;
27746;SDS011;15138;51.012;4.692;2023-04-15T13:11:45;3.15;;;1.20;;
27746;SDS011;15138;51.012;4.692;2023-04-15T13:14:14;4.60;;;1.58;;
27746;SDS011;15138;51.012;4.692;2023-04-15T13:16:42;1.95;;;1.10;;
27746;SDS011;15138;51.012;4.692;2023-04-15T13:19:12;3.78;;;1.00;;
27746;SDS011;15138;51.012;4.692;2023-04-15T13:21:40;0.70;;;0.43;;
27746;SDS011;15138;51.012;4.692;2023-04-15T13:24:08;4.55;;;1.42;;
27746;SDS011;15138;51.012;4.692;2023-04-15T13:26:37;7.05;;;1.30;;
27746;SDS011;15138;51.012;4.692;2023-04-15T13:29:05;3.10;;;1.40;;
27746;SDS011;15138;51.012;4.692;2023-04-15T13:31:33;3.15;;;1.45;;
27746;SDS011;15138;51.012;4.692;2023-04-15T13:34:02;4.60;;;2.15;;
27746;SDS011;15138;51.012;4.692;2023-04-15T13:36:32;5.32;;;1.70;;
27746;SDS011;15138;51.012;4.692;2023-04-15T13:39:00;6.80;;;2.00;;
27746;SDS011;15138;51.012;4.692;2023-04-15T13:41:30;4.10;;;1.65;;
27746;SDS011;15138;51.012;4.692;2023-04-15T13:43:59;2.72;;;1.40;;
27746;SDS011;15138;51.012;4.692;2023-04-15T13:46:27;3.78;;;1.50;;
27746;SDS011;15138;51.012;4.692;2023-04-15T13:48:55;5.20;;;1.63;;
27746;SDS011;15138;51.012;4.692;2023-04-15T13:51:23;2.00;;;1.15;;
27746;SDS011;15138;51.012;4.692;2023-04-15T13:53:53;2.92;;;0.98;;
27746;SDS011;15138;51.012;4.692;2023-04-15T13:56:23;2.75;;;1.00;;
27746;SDS011;15138;51.012;4.692;2023-04-15T13:58:51;8.13;;;1.70;;
27746;SDS011;15138;51.012;4.692;2023-04-15T14:01:24;3.05;;;1.40;;
27746;SDS011;15138;51.012;4.692;2023-04-15T14:03:52;4.88;;;1.55;;
27746;SDS011;15138;51.012;4.692;2023-04-15T14:06:21;2.33;;;1.05;;
27746;SDS011;15138;51.012;4.692;2023-04-15T14:08:49;2.20;;;1.48;;
27746;SDS011;15138;51.012;4.692;2023-04-15T14:11:19;4.78;;;1.13;;
27746;SDS011;15138;51.012;4.692;2023-04-15T14:13:47;3.05;;;1.52;;
27746;SDS011;15138;51.012;4.692;2023-04-15T14:16:16;3.47;;;1.10;;
27746;SDS011;15138;51.012;4.692;2023-04-15T14:18:44;1.25;;;0.70;;
27746;SDS011;15138;51.012;4.692;2023-04-15T14:21:12;2.72;;;1.40;;
27746;SDS011;15138;51.012;4.692;2023-04-15T14:23:41;4.90;;;1.50;;
27746;SDS011;15138;51.012;4.692;2023-04-15T14:26:09;3.35;;;1.30;;
27746;SDS011;15138;51.012;4.692;2023-04-15T14:28:40;5.15;;;1.10;;
27746;SDS011;15138;51.012;4.692;2023-04-15T14:31:10;2.55;;;1.20;;
27746;SDS011;15138;51.012;4.692;2023-04-15T14:33:39;4.72;;;1.40;;
27746;SDS011;15138;51.012;4.692;2023-04-15T14:36:08;4.00;;;1.05;;
27746;SDS011;15138;51.012;4.692;2023-04-15T14:38:36;4.13;;;1.00;;
27746;SDS011;15138;51.012;4.692;2023-04-15T14:41:05;2.35;;;1.40;;
27746;SDS011;15138;51.012;4.692;2023-04-15T14:43:34;3.13;;;1.60;;
27746;SDS011;15138;51.012;4.692;2023-04-15T14:46:04;4.30;;;1.25;;
27746;SDS011;15138;51.012;4.692;2023-04-15T14:48:33;4.03;;;1.20;;
27746;SDS011;15138;51.012;4.692;2023-04-15T14:51:02;2.20;;;1.23;;
27746;SDS011;15138;51.012;4.692;2023-04-15T14:53:30;5.72;;;1.02;;
27746;SDS011;15138;51.012;4.692;2023-04-15T14:55:59;1.77;;;1.40;;
27746;SDS011;15138;51.012;4.692;2023-04-15T14:58:27;4.90;;;1.60;;
27746;SDS011;15138;51.012;4.692;2023-04-15T15:00:55;2.88;;;1.25;;